Rogers, New Mexico
Current Conditions -  °F | °C
As of 8:58 AM on Sunday 25 Jan 2015 (Local Time) from KCVS Reporting Station
Clear Clear  
Wind Chill: 33°   Ceiling: Unl
Heat Index: 38°   Visibility: 10mi
Dew Point: 27°   Wind: 7mph
Humidity: 64%   Direction: 300°WNW
Pressure: 30.26"   Gusts: NA
Location:  33.98°N, 103.23°W
Report Text: KCVS 251558Z AUTO 30006KT 10SM CLR 04/M03 A3026 RMK AO2 SLP251 T00361027 VISNO RWY22 $
Loading
Personal Weather Stations






























Interactive Weather Map New forecast layout! Learn more

10-Day Weather Forecast

Advertisements
Track Severe Weather on mobile